MAA weather

Chennai International Airport
Chennai, Tamil Nadu, India

Public forecast

Using degrees Celsius for public forecast. Weather courtesy of forecast.io.

Current aviation weather report (METAR) for Chennai International Airport

Retrieved 2020/02/27 20:30 UTC (7 minutes ago):

VOMM 272030Z 07003KT 6000 FEW020 27/23 Q1011 NOSIG

Aviation forecast (TAF) for Chennai International Airport

Retrieved 2020/02/27 18:00 UTC (3 hours ago):

TAF VOMM 271700Z 2718/2824 09005KT 5000 HZ SCT020 BECMG 2721/2722 00000KT 3000 BR TEMPO 2800/2803 1000 MIFG BECMG 2805/2806 09010KT 4000 HZ BECMG 2809/2810 6000 BECMG 2818/2819 5000 HZ BECMG 2821/2822 00000KT 3000 BR